Time;durP1;ratioP1;P1;durP2;ratioP2;P2;SDS_P1;SDS_P2;PMS_P1;PMS_P2;Temp;Humidity;BMP_temperature;BMP_pressure;BME280_temperature;BME280_humidity;BME280_pressure;Samples;Min_cycle;Max_cycle;Signal;HPM_P1;HPM_P2
2023/08/26 00:00:23;;;;;;;7.60;2.50;;;;;;;;;;4989264;28;93568;-80
2023/08/26 00:02:50;;;;;;;5.93;2.30;;;;;;;;;;4988953;28;92899;-80
2023/08/26 00:05:16;;;;;;;7.55;2.42;;;;;;;;;;4989579;28;93129;-80
2023/08/26 00:07:43;;;;;;;5.63;2.47;;;;;;;;;;4970646;28;93171;-80
2023/08/26 00:10:09;;;;;;;5.97;2.47;;;;;;;;;;4989178;28;92488;-81
2023/08/26 00:12:36;;;;;;;7.40;2.45;;;;;;;;;;4990937;28;94921;-82
2023/08/26 00:15:03;;;;;;;6.97;2.40;;;;;;;;;;4989778;28;92468;-81
2023/08/26 00:17:29;;;;;;;7.65;2.30;;;;;;;;;;4989070;28;92631;-81
2023/08/26 00:19:56;;;;;;;9.40;2.55;;;;;;;;;;4991112;28;93469;-81
2023/08/26 00:22:22;;;;;;;7.75;2.17;;;;;;;;;;4992988;28;92676;-81
2023/08/26 00:24:49;;;;;;;5.78;2.13;;;;;;;;;;4993273;28;93111;-81
2023/08/26 00:27:16;;;;;;;4.18;2.03;;;;;;;;;;4992393;28;94451;-81
2023/08/26 00:29:44;;;;;;;5.60;2.28;;;;;;;;;;4974692;28;92247;-81
2023/08/26 00:32:10;;;;;;;5.88;2.10;;;;;;;;;;4992386;28;93379;-81
2023/08/26 00:34:37;;;;;;;6.88;1.92;;;;;;;;;;4995489;28;93283;-81
2023/08/26 00:37:03;;;;;;;6.38;2.20;;;;;;;;;;4972675;28;95534;-81
2023/08/26 00:39:31;;;;;;;7.53;2.17;;;;;;;;;;4992362;28;93276;-81
2023/08/26 00:41:57;;;;;;;7.10;2.50;;;;;;;;;;4992591;28;92407;-81
2023/08/26 00:44:24;;;;;;;8.60;1.98;;;;;;;;;;4975273;28;95613;-82
2023/08/26 00:46:50;;;;;;;6.43;2.03;;;;;;;;;;4972453;28;95805;-82
2023/08/26 00:49:17;;;;;;;5.53;2.10;;;;;;;;;;4992694;28;92788;-81
2023/08/26 00:51:44;;;;;;;6.47;2.03;;;;;;;;;;4992008;28;92901;-81
2023/08/26 00:54:11;;;;;;;5.32;2.13;;;;;;;;;;4961116;28;94596;-81
2023/08/26 00:56:38;;;;;;;8.73;2.20;;;;;;;;;;4992040;28;92375;-81
2023/08/26 00:59:04;;;;;;;4.90;1.83;;;;;;;;;;4973500;28;95980;-81
2023/08/26 01:01:32;;;;;;;6.63;2.03;;;;;;;;;;4971850;28;95583;-82
2023/08/26 01:03:59;;;;;;;6.80;2.20;;;;;;;;;;4992009;28;95414;-82
2023/08/26 01:06:26;;;;;;;6.78;2.13;;;;;;;;;;4957173;28;94157;-81
2023/08/26 01:08:53;;;;;;;5.88;1.85;;;;;;;;;;4958314;28;92547;-81
2023/08/26 01:11:32;;;;;;;9.15;2.15;;;;;;;;;;4992020;28;92850;-81
2023/08/26 01:14:14;;;;;;;6.70;2.28;;;;;;;;;;4959917;28;96281;-82
2023/08/26 01:16:41;;;;;;;8.63;2.00;;;;;;;;;;4976480;28;92952;-82
2023/08/26 01:19:13;;;;;;;4.50;1.88;;;;;;;;;;4992704;28;92069;-82
2023/08/26 01:21:40;;;;;;;8.13;2.03;;;;;;;;;;4973241;28;92488;-82
2023/08/26 01:24:07;;;;;;;7.10;2.63;;;;;;;;;;4973302;28;95676;-82
2023/08/26 01:26:34;;;;;;;5.68;2.55;;;;;;;;;;4990273;28;95560;-82
2023/08/26 01:29:00;;;;;;;10.15;2.53;;;;;;;;;;4991906;28;92903;-83
2023/08/26 01:31:29;;;;;;;6.40;2.05;;;;;;;;;;4973393;28;94042;-83
2023/08/26 01:34:02;;;;;;;6.10;2.20;;;;;;;;;;4991480;28;92655;-82
2023/08/26 01:36:31;;;;;;;6.05;2.15;;;;;;;;;;4992214;28;93905;-81
2023/08/26 01:38:57;;;;;;;7.13;2.38;;;;;;;;;;4976218;28;95430;-82
2023/08/26 01:41:25;;;;;;;6.20;2.28;;;;;;;;;;4998935;28;92568;-81
2023/08/26 01:43:53;;;;;;;6.43;2.50;;;;;;;;;;4977540;28;94017;-82
2023/08/26 01:46:32;;;;;;;9.68;2.90;;;;;;;;;;4976667;28;95492;-82
2023/08/26 01:48:59;;;;;;;7.53;2.75;;;;;;;;;;4992394;28;92373;-82
2023/08/26 01:51:25;;;;;;;6.75;2.70;;;;;;;;;;4938409;28;95491;-82
2023/08/26 01:53:52;;;;;;;7.45;2.47;;;;;;;;;;4983749;28;92929;-82
2023/08/26 01:56:19;;;;;;;5.68;1.95;;;;;;;;;;4991505;28;92511;-82
2023/08/26 01:58:45;;;;;;;6.82;2.65;;;;;;;;;;4973160;28;93937;-83
2023/08/26 02:01:12;;;;;;;8.35;3.55;;;;;;;;;;4975873;28;95905;-82
2023/08/26 02:03:38;;;;;;;8.32;3.17;;;;;;;;;;4973010;28;95491;-82
2023/08/26 02:06:05;;;;;;;6.45;2.50;;;;;;;;;;4956541;28;95789;-82
2023/08/26 02:08:32;;;;;;;8.48;2.97;;;;;;;;;;4972738;28;91763;-82
2023/08/26 02:10:58;;;;;;;9.45;3.80;;;;;;;;;;4991877;28;92427;-82
2023/08/26 02:13:25;;;;;;;9.48;3.28;;;;;;;;;;4973305;28;96448;-81
2023/08/26 02:15:52;;;;;;;6.85;3.00;;;;;;;;;;4971276;28;94917;-80
2023/08/26 02:18:18;;;;;;;10.00;3.97;;;;;;;;;;4973124;28;98056;-81
2023/08/26 02:20:45;;;;;;;10.95;3.75;;;;;;;;;;4956201;28;96019;-80
2023/08/26 02:23:12;;;;;;;9.63;3.80;;;;;;;;;;4975489;28;92579;-81
2023/08/26 02:25:39;;;;;;;5.97;2.28;;;;;;;;;;4972395;28;95914;-81
2023/08/26 02:28:05;;;;;;;10.45;3.65;;;;;;;;;;4990974;28;92423;-82
2023/08/26 02:30:32;;;;;;;11.32;4.10;;;;;;;;;;4991271;28;92419;-82
2023/08/26 02:32:59;;;;;;;12.15;3.80;;;;;;;;;;4993894;28;92929;-81
2023/08/26 02:35:25;;;;;;;9.02;3.70;;;;;;;;;;4974086;28;92856;-81
2023/08/26 02:37:52;;;;;;;11.32;3.70;;;;;;;;;;4992174;28;93021;-82
2023/08/26 02:40:19;;;;;;;8.63;3.28;;;;;;;;;;4990277;28;95885;-81
2023/08/26 02:42:45;;;;;;;11.30;3.42;;;;;;;;;;4990625;28;92426;-81
2023/08/26 02:45:12;;;;;;;9.68;2.92;;;;;;;;;;4978513;28;92466;-82
2023/08/26 02:47:38;;;;;;;9.52;3.50;;;;;;;;;;4992567;28;92400;-81
2023/08/26 02:50:05;;;;;;;10.15;3.67;;;;;;;;;;4974625;28;95646;-81
2023/08/26 02:52:32;;;;;;;8.85;3.25;;;;;;;;;;4955064;28;95872;-81
2023/08/26 02:54:59;;;;;;;9.55;3.08;;;;;;;;;;4982239;28;92911;-81
2023/08/26 02:57:26;;;;;;;10.48;3.50;;;;;;;;;;4994614;28;92772;-81
2023/08/26 02:59:52;;;;;;;9.40;3.38;;;;;;;;;;4975658;28;96072;-81
2023/08/26 03:02:24;;;;;;;8.70;3.63;;;;;;;;;;4973988;28;92966;-80
2023/08/26 03:04:51;;;;;;;12.27;3.83;;;;;;;;;;4992270;28;95535;-80
2023/08/26 03:07:17;;;;;;;9.65;3.20;;;;;;;;;;4989261;28;95500;-80
2023/08/26 03:09:44;;;;;;;9.68;3.60;;;;;;;;;;4990211;28;92682;-80
2023/08/26 03:12:10;;;;;;;9.15;3.63;;;;;;;;;;4989797;28;92960;-80
2023/08/26 03:14:37;;;;;;;10.63;3.50;;;;;;;;;;4972046;28;92539;-81
2023/08/26 03:17:03;;;;;;;10.02;3.65;;;;;;;;;;4990183;28;93231;-82
2023/08/26 03:19:31;;;;;;;9.45;3.40;;;;;;;;;;4972033;28;96237;-79
2023/08/26 03:21:58;;;;;;;10.30;3.20;;;;;;;;;;4990334;28;91708;-79
2023/08/26 03:24:25;;;;;;;9.13;3.22;;;;;;;;;;4990324;28;92439;-80
2023/08/26 03:26:52;;;;;;;11.35;3.22;;;;;;;;;;4974675;28;94220;-80
2023/08/26 03:29:18;;;;;;;11.07;3.80;;;;;;;;;;4970316;28;96001;-79
2023/08/26 03:31:47;;;;;;;10.98;3.38;;;;;;;;;;4955335;28;96437;-79
2023/08/26 03:34:16;;;;;;;9.95;3.45;;;;;;;;;;4969969;28;92610;-79
2023/08/26 03:36:42;;;;;;;7.97;2.80;;;;;;;;;;4955352;28;95334;-79
2023/08/26 03:39:09;;;;;;;10.57;2.90;;;;;;;;;;4989743;28;93114;-80
2023/08/26 03:41:36;;;;;;;11.68;3.22;;;;;;;;;;4971547;28;92484;-81
2023/08/26 03:44:04;;;;;;;8.38;3.60;;;;;;;;;;4971965;28;95482;-81
2023/08/26 03:46:31;;;;;;;6.93;2.30;;;;;;;;;;4990108;28;92759;-81
2023/08/26 03:48:57;;;;;;;10.10;3.50;;;;;;;;;;4992929;28;92465;-80
2023/08/26 03:51:24;;;;;;;7.65;2.10;;;;;;;;;;4975670;28;95827;-81
2023/08/26 03:53:50;;;;;;;8.90;3.33;;;;;;;;;;4990435;28;94816;-80
2023/08/26 03:56:17;;;;;;;10.70;3.15;;;;;;;;;;4993266;28;96373;-81
2023/08/26 03:58:44;;;;;;;12.30;3.90;;;;;;;;;;4974491;28;94203;-81
2023/08/26 04:01:10;;;;;;;11.35;4.00;;;;;;;;;;4974543;28;92592;-81
2023/08/26 04:03:37;;;;;;;9.77;3.22;;;;;;;;;;4958427;28;96021;-81
2023/08/26 04:06:04;;;;;;;10.63;4.07;;;;;;;;;;4975017;28;93399;-80
2023/08/26 04:08:31;;;;;;;;;;;;;;;;;;4975374;28;92708;-81
2023/08/26 04:10:58;;;;;;;9.63;3.30;;;;;;;;;;4979729;28;95126;-80
2023/08/26 04:13:27;;;;;;;11.80;4.18;;;;;;;;;;4974529;28;92427;-81
2023/08/26 04:15:55;;;;;;;9.30;3.72;;;;;;;;;;4992910;28;92949;-80
2023/08/26 04:18:23;;;;;;;7.30;2.15;;;;;;;;;;4956635;28;97963;-81
2023/08/26 04:20:50;;;;;;;9.05;3.67;;;;;;;;;;4993259;28;92446;-82
2023/08/26 04:23:17;;;;;;;9.93;4.15;;;;;;;;;;4993377;28;92800;-82
2023/08/26 04:25:43;;;;;;;8.73;3.42;;;;;;;;;;4958632;28;94225;-82
2023/08/26 04:28:11;;;;;;;11.45;3.97;;;;;;;;;;4975083;28;93048;-81
2023/08/26 04:30:38;;;;;;;11.60;3.70;;;;;;;;;;4974745;28;95990;-80
2023/08/26 04:33:05;;;;;;;12.57;3.92;;;;;;;;;;4975363;28;96260;-81
2023/08/26 04:35:32;;;;;;;11.07;4.22;;;;;;;;;;4991834;28;92856;-80
2023/08/26 04:38:00;;;;;;;10.68;4.20;;;;;;;;;;4976246;28;93001;-80
2023/08/26 04:40:27;;;;;;;7.47;2.83;;;;;;;;;;4974826;28;92523;-80
2023/08/26 04:42:53;;;;;;;10.38;3.92;;;;;;;;;;4991434;28;95213;-81
2023/08/26 04:45:20;;;;;;;12.65;4.63;;;;;;;;;;4974784;28;95170;-80
2023/08/26 04:47:47;;;;;;;10.57;3.92;;;;;;;;;;4974222;28;92535;-80
2023/08/26 04:50:14;;;;;;;12.40;3.88;;;;;;;;;;4974918;28;95712;-81
2023/08/26 04:52:42;;;;;;;11.95;4.10;;;;;;;;;;4992637;28;93834;-80
2023/08/26 04:55:09;;;;;;;9.52;4.38;;;;;;;;;;4991480;28;92935;-81
2023/08/26 04:57:36;;;;;;;10.45;3.58;;;;;;;;;;4973700;28;95767;-79
2023/08/26 05:00:08;;;;;;;12.48;3.80;;;;;;;;;;4978717;28;92172;-80
2023/08/26 05:02:35;;;;;;;11.15;3.80;;;;;;;;;;4973584;28;95213;-80
2023/08/26 05:05:02;;;;;;;14.30;4.35;;;;;;;;;;4986333;28;93694;-81
2023/08/26 05:07:28;;;;;;;9.95;3.72;;;;;;;;;;4956885;28;95479;-80
2023/08/26 05:09:55;;;;;;;11.60;4.25;;;;;;;;;;4984430;28;96588;-80
2023/08/26 05:12:22;;;;;;;13.15;4.28;;;;;;;;;;4972483;28;93242;-80
2023/08/26 05:14:49;;;;;;;;;;;;;;;;;;4975931;28;92558;-80
2023/08/26 05:17:16;;;;;;;12.65;4.32;;;;;;;;;;4973340;28;93418;-81
2023/08/26 05:19:42;;;;;;;9.52;3.47;;;;;;;;;;4972533;28;92492;-81
2023/08/26 05:22:09;;;;;;;8.15;3.67;;;;;;;;;;4965392;28;95287;-80
2023/08/26 05:24:35;;;;;;;11.27;3.83;;;;;;;;;;4970533;28;95401;-81
2023/08/26 05:27:03;;;;;;;13.18;4.63;;;;;;;;;;4969873;28;92466;-81
2023/08/26 05:29:30;;;;;;;10.68;4.30;;;;;;;;;;4970188;28;95214;-81
2023/08/26 05:31:57;;;;;;;10.98;4.00;;;;;;;;;;4968284;28;97862;-81
2023/08/26 05:34:26;;;;;;;8.90;3.08;;;;;;;;;;4971877;28;92793;-80
2023/08/26 05:36:53;;;;;;;11.50;4.07;;;;;;;;;;4972783;28;92919;-80
2023/08/26 05:39:19;;;;;;;10.00;3.60;;;;;;;;;;4971649;28;92509;-80
2023/08/26 05:41:46;;;;;;;12.07;3.85;;;;;;;;;;4971363;28;92851;-81
2023/08/26 05:44:13;;;;;;;10.35;4.05;;;;;;;;;;4969550;28;96427;-81
2023/08/26 05:46:39;;;;;;;10.13;4.10;;;;;;;;;;4970887;28;92456;-81
2023/08/26 05:49:06;;;;;;;9.35;3.70;;;;;;;;;;4970156;28;96101;-81
2023/08/26 05:51:32;;;;;;;10.48;2.78;;;;;;;;;;4971433;28;92989;-80
2023/08/26 05:53:59;;;;;;;10.10;3.33;;;;;;;;;;4969469;28;92613;-82
2023/08/26 05:56:25;;;;;;;11.18;3.70;;;;;;;;;;4967696;28;95162;-81
2023/08/26 05:58:54;;;;;;;8.25;3.17;;;;;;;;;;4972317;28;95256;-81
2023/08/26 06:01:21;;;;;;;10.07;3.30;;;;;;;;;;4971651;28;93963;-80
2023/08/26 06:03:48;;;;;;;11.55;4.32;;;;;;;;;;4970403;28;95988;-80
2023/08/26 06:06:14;;;;;;;12.07;4.05;;;;;;;;;;4969449;28;92568;-80
2023/08/26 06:08:41;;;;;;;10.25;3.50;;;;;;;;;;4969825;28;95833;-80
2023/08/26 06:11:08;;;;;;;8.30;3.25;;;;;;;;;;4971127;28;94045;-80
2023/08/26 06:13:35;;;;;;;10.02;3.22;;;;;;;;;;4969681;28;91951;-79
2023/08/26 06:16:02;;;;;;;7.90;2.80;;;;;;;;;;4968687;28;94608;-80
2023/08/26 06:18:29;;;;;;;6.78;2.05;;;;;;;;;;4968512;28;95470;-80
2023/08/26 06:20:56;;;;;;;10.82;3.47;;;;;;;;;;4972075;28;94959;-81
2023/08/26 06:23:22;;;;;;;10.60;3.72;;;;;;;;;;4969118;28;94299;-80
2023/08/26 06:25:49;;;;;;;8.02;2.58;;;;;;;;;;4968919;28;92585;-80
2023/08/26 06:28:16;;;;;;;7.93;3.05;;;;;;;;;;4969061;28;95220;-81
2023/08/26 06:30:44;;;;;;;8.93;3.25;;;;;;;;;;4968914;28;94439;-81
2023/08/26 06:33:11;;;;;;;7.85;3.13;;;;;;;;;;4969140;28;93161;-81
2023/08/26 06:35:37;;;;;;;9.40;3.05;;;;;;;;;;4970405;28;92770;-81
2023/08/26 06:38:04;;;;;;;9.35;2.65;;;;;;;;;;4969733;28;95426;-82
2023/08/26 06:40:33;;;;;;;8.57;3.33;;;;;;;;;;4970348;28;92421;-82
2023/08/26 06:43:02;;;;;;;9.43;3.47;;;;;;;;;;4976786;28;93021;-82
2023/08/26 06:45:29;;;;;;;10.75;2.85;;;;;;;;;;4970874;28;96458;-82
2023/08/26 06:47:56;;;;;;;9.48;3.30;;;;;;;;;;4972173;28;97121;-82
2023/08/26 06:50:23;;;;;;;7.20;2.78;;;;;;;;;;4974221;28;93677;-82
2023/08/26 06:52:50;;;;;;;11.52;3.63;;;;;;;;;;4960218;28;92931;-81
2023/08/26 06:55:17;;;;;;;10.02;3.60;;;;;;;;;;4964685;28;93000;-83
2023/08/26 06:57:44;;;;;;;9.38;3.00;;;;;;;;;;4976926;28;93417;-81
2023/08/26 07:00:11;;;;;;;7.70;2.30;;;;;;;;;;4978195;28;92525;-81
2023/08/26 07:02:38;;;;;;;7.95;2.78;;;;;;;;;;4980092;28;92767;-82
2023/08/26 07:05:05;;;;;;;8.60;2.90;;;;;;;;;;4978845;28;92455;-79
2023/08/26 07:07:33;;;;;;;7.47;2.45;;;;;;;;;;4971984;28;92575;-82
2023/08/26 07:09:59;;;;;;;7.72;2.75;;;;;;;;;;4981717;28;95706;-80
2023/08/26 07:12:26;;;;;;;9.30;3.30;;;;;;;;;;4972323;28;92872;-81
2023/08/26 07:14:52;;;;;;;8.73;2.97;;;;;;;;;;4956654;28;92543;-80
2023/08/26 07:17:19;;;;;;;7.68;2.30;;;;;;;;;;4970567;28;93259;-81
2023/08/26 07:19:46;;;;;;;7.70;2.75;;;;;;;;;;4971110;28;93324;-80
2023/08/26 07:22:12;;;;;;;8.85;3.50;;;;;;;;;;4972822;28;93284;-80
2023/08/26 07:24:39;;;;;;;9.40;2.33;;;;;;;;;;4976542;28;93165;-79
2023/08/26 07:27:06;;;;;;;9.27;3.08;;;;;;;;;;4970694;28;92944;-81
2023/08/26 07:29:36;;;;;;;8.55;2.80;;;;;;;;;;4968837;28;95797;-80
2023/08/26 07:32:03;;;;;;;7.97;2.60;;;;;;;;;;4972294;28;92780;-83
2023/08/26 07:34:30;;;;;;;7.85;2.13;;;;;;;;;;4975119;28;94844;-80
2023/08/26 07:36:57;;;;;;;11.50;2.17;;;;;;;;;;4978392;28;93885;-80
2023/08/26 07:39:24;;;;;;;8.68;2.00;;;;;;;;;;4977817;28;92849;-82
2023/08/26 07:41:51;;;;;;;6.25;2.08;;;;;;;;;;4969247;28;92339;-82
2023/08/26 07:44:17;;;;;;;9.73;1.90;;;;;;;;;;4987814;28;92342;-82
2023/08/26 07:46:44;;;;;;;9.10;1.70;;;;;;;;;;4977341;28;92775;-83
2023/08/26 07:49:13;;;;;;;7.63;1.73;;;;;;;;;;4973043;28;92515;-83
2023/08/26 07:51:40;;;;;;;6.32;1.80;;;;;;;;;;4971057;28;91749;-83
2023/08/26 07:54:08;;;;;;;7.88;1.60;;;;;;;;;;4971686;28;92488;-83
2023/08/26 07:56:34;;;;;;;7.57;1.75;;;;;;;;;;4955958;28;93265;-83
2023/08/26 07:59:01;;;;;;;8.80;1.90;;;;;;;;;;4970144;28;94988;-83
2023/08/26 08:01:27;;;;;;;6.75;1.80;;;;;;;;;;4969859;28;96408;-83
2023/08/26 08:03:55;;;;;;;;;;;;;;;;;;4970308;28;93175;-82
2023/08/26 08:06:21;;;;;;;6.07;1.90;;;;;;;;;;4971556;28;93007;-82
2023/08/26 08:08:48;;;;;;;5.93;1.83;;;;;;;;;;4972265;28;92712;-83
2023/08/26 08:11:14;;;;;;;6.57;1.90;;;;;;;;;;4976234;28;92532;-84
2023/08/26 08:13:41;;;;;;;8.77;2.38;;;;;;;;;;4966679;28;92356;-83
2023/08/26 08:16:08;;;;;;;6.22;1.92;;;;;;;;;;4966605;28;92444;-83
2023/08/26 08:18:35;;;;;;;7.22;2.10;;;;;;;;;;4969646;28;92382;-83
2023/08/26 08:21:01;;;;;;;7.63;2.30;;;;;;;;;;4969134;28;92961;-83
2023/08/26 08:23:28;;;;;;;4.75;1.80;;;;;;;;;;4967523;28;96032;-84
2023/08/26 08:25:55;;;;;;;7.05;2.42;;;;;;;;;;4957144;28;92526;-82
2023/08/26 08:28:21;;;;;;;7.47;2.55;;;;;;;;;;4969909;28;92443;-81
2023/08/26 08:30:48;;;;;;;6.65;2.40;;;;;;;;;;4972500;28;93301;-83
2023/08/26 08:33:17;;;;;;;7.72;2.60;;;;;;;;;;4955255;28;93593;-82
2023/08/26 08:35:43;;;;;;;5.30;2.40;;;;;;;;;;4969207;28;93406;-82
2023/08/26 08:38:10;;;;;;;6.60;2.20;;;;;;;;;;4967530;28;92718;-81
2023/08/26 08:40:38;;;;;;;7.32;2.80;;;;;;;;;;4970587;28;92867;-81
2023/08/26 08:43:05;;;;;;;6.25;2.35;;;;;;;;;;4972411;28;93098;-81
2023/08/26 08:45:33;;;;;;;7.07;2.42;;;;;;;;;;4972870;28;92402;-81
2023/08/26 08:48:00;;;;;;;7.22;2.30;;;;;;;;;;4971030;28;95200;-81
2023/08/26 08:50:27;;;;;;;8.25;2.58;;;;;;;;;;4973536;28;93597;-82
2023/08/26 08:52:55;;;;;;;5.57;2.20;;;;;;;;;;4974538;28;92555;-82
2023/08/26 08:55:22;;;;;;;5.30;2.10;;;;;;;;;;4972896;28;93231;-82
2023/08/26 08:57:51;;;;;;;8.52;2.80;;;;;;;;;;4973036;28;92966;-82
2023/08/26 09:00:19;;;;;;;5.88;2.60;;;;;;;;;;4972597;28;92686;-81
2023/08/26 09:02:46;;;;;;;5.32;2.47;;;;;;;;;;4962788;28;93504;-83
2023/08/26 09:05:13;;;;;;;6.93;2.70;;;;;;;;;;4970917;28;91773;-81
2023/08/26 09:07:40;;;;;;;4.90;2.20;;;;;;;;;;4981889;28;93161;-82
2023/08/26 09:10:08;;;;;;;6.70;2.70;;;;;;;;;;4982948;28;94319;-82
2023/08/26 09:12:35;;;;;;;10.48;2.65;;;;;;;;;;4976435;28;95125;-84
2023/08/26 09:15:03;;;;;;;7.22;2.70;;;;;;;;;;4992109;28;94282;-83
2023/08/26 09:17:30;;;;;;;5.43;2.72;;;;;;;;;;4982734;28;92815;-83
2023/08/26 09:19:58;;;;;;;;;;;;;;;;;;4976983;28;94477;-83
2023/08/26 09:22:25;;;;;;;5.30;2.50;;;;;;;;;;4994475;28;93285;-82
2023/08/26 09:24:55;;;;;;;6.45;2.67;;;;;;;;;;4993048;28;92463;-84
2023/08/26 09:27:22;;;;;;;6.38;2.90;;;;;;;;;;4992217;28;94873;-84
2023/08/26 09:29:49;;;;;;;5.88;2.80;;;;;;;;;;4992809;28;92552;-84
2023/08/26 09:32:29;;;;;;;6.53;2.67;;;;;;;;;;4973848;28;92456;-83
2023/08/26 09:35:06;;;;;;;5.32;2.67;;;;;;;;;;4979349;28;92797;-84
2023/08/26 09:37:33;;;;;;;6.05;3.00;;;;;;;;;;4977791;28;94839;-85
2023/08/26 09:40:00;;;;;;;6.30;2.90;;;;;;;;;;4992455;28;95010;-85
2023/08/26 09:42:26;;;;;;;8.38;2.70;;;;;;;;;;4991666;28;93133;-83
2023/08/26 09:44:56;;;;;;;5.90;2.60;;;;;;;;;;4993264;28;92487;-81
2023/08/26 09:47:27;;;;;;;4.93;2.28;;;;;;;;;;4991650;28;92513;-83
2023/08/26 09:49:53;;;;;;;5.93;2.78;;;;;;;;;;4978664;28;95229;-80
2023/08/26 09:52:20;;;;;;;4.50;2.50;;;;;;;;;;4977718;28;92999;-81
2023/08/26 09:54:48;;;;;;;5.57;2.83;;;;;;;;;;4974746;28;92790;-80
2023/08/26 09:57:15;;;;;;;7.15;3.20;;;;;;;;;;4994689;28;93545;-81
2023/08/26 09:59:41;;;;;;;8.45;3.47;;;;;;;;;;4992268;28;92726;-82
2023/08/26 10:02:20;;;;;;;6.68;3.55;;;;;;;;;;4991907;28;95360;-82
2023/08/26 10:04:48;;;;;;;7.03;3.70;;;;;;;;;;4993092;28;93063;-82
2023/08/26 10:07:15;;;;;;;7.10;3.53;;;;;;;;;;4992226;28;92797;-82
2023/08/26 10:10:00;;;;;;;6.80;3.60;;;;;;;;;;4991930;28;93503;-82
2023/08/26 10:12:33;;;;;;;8.38;4.00;;;;;;;;;;4973783;28;92546;-83
2023/08/26 10:15:01;;;;;;;6.28;3.50;;;;;;;;;;4992982;28;92891;-83
2023/08/26 10:17:30;;;;;;;5.68;3.13;;;;;;;;;;4982328;28;93133;-81
2023/08/26 10:19:57;;;;;;;6.40;3.40;;;;;;;;;;4987196;28;91788;-86
2023/08/26 10:22:24;;;;;;;6.97;3.50;;;;;;;;;;4993235;28;92967;-86
2023/08/26 10:24:51;;;;;;;7.05;3.25;;;;;;;;;;4992330;28;92611;-83
2023/08/26 10:27:18;;;;;;;8.20;2.95;;;;;;;;;;4971568;28;94952;-81
2023/08/26 10:29:45;;;;;;;8.88;3.45;;;;;;;;;;4991447;28;93124;-82
2023/08/26 10:32:17;;;;;;;7.57;3.60;;;;;;;;;;4990871;28;92506;-82
2023/08/26 10:34:56;;;;;;;7.22;3.33;;;;;;;;;;4990106;28;94032;-83
2023/08/26 10:37:27;;;;;;;6.22;3.30;;;;;;;;;;4990428;28;93025;-84
2023/08/26 10:40:03;;;;;;;6.15;3.50;;;;;;;;;;4990661;28;92604;-83
2023/08/26 10:42:30;;;;;;;7.03;3.20;;;;;;;;;;4994273;28;92924;-83
2023/08/26 10:44:57;;;;;;;7.63;3.08;;;;;;;;;;4991833;28;92464;-82
2023/08/26 10:47:34;;;;;;;7.90;3.20;;;;;;;;;;4990763;28;92476;-82
2023/08/26 10:50:14;;;;;;;6.45;3.13;;;;;;;;;;4990659;28;94245;-82
2023/08/26 10:52:40;;;;;;;;;;;;;;;;;;4992150;28;95153;-82
2023/08/26 10:55:27;;;;;;;7.00;2.70;;;;;;;;;;4976933;28;102322;-81
2023/08/26 10:58:06;;;;;;;8.00;3.03;;;;;;;;;;4989958;28;93471;-82
2023/08/26 11:00:33;;;;;;;4.57;2.78;;;;;;;;;;4990398;28;92359;-81
2023/08/26 11:03:01;;;;;;;6.32;3.00;;;;;;;;;;4989891;28;94373;-81
2023/08/26 11:05:28;;;;;;;6.22;2.72;;;;;;;;;;4995456;28;93554;-80
2023/08/26 11:07:55;;;;;;;6.80;3.10;;;;;;;;;;4985387;28;92900;-81
2023/08/26 11:10:22;;;;;;;;;;;;;;;;;;4962322;28;92661;-79
2023/08/26 11:12:49;;;;;;;6.40;3.00;;;;;;;;;;4983911;28;110781;-80
2023/08/26 11:15:15;;;;;;;6.90;3.30;;;;;;;;;;4994343;28;93444;-81
2023/08/26 11:17:42;;;;;;;7.43;3.10;;;;;;;;;;4993035;28;95433;-85
2023/08/26 11:20:28;;;;;;;6.53;3.22;;;;;;;;;;4990879;28;92529;-83
2023/08/26 11:22:55;;;;;;;8.50;2.50;;;;;;;;;;4973868;28;92960;-84
2023/08/26 11:25:22;;;;;;;13.05;2.50;;;;;;;;;;4990702;28;93079;-86
2023/08/26 11:27:48;;;;;;;23.65;3.53;;;;;;;;;;4988055;28;92905;-86
2023/08/26 11:30:15;;;;;;;13.57;2.53;;;;;;;;;;4972386;28;96135;-85
2023/08/26 11:32:41;;;;;;;13.63;2.35;;;;;;;;;;4987753;28;92493;-85
2023/08/26 11:35:10;;;;;;;5.90;2.30;;;;;;;;;;4993994;28;92795;-88
2023/08/26 11:37:43;;;;;;;8.07;2.47;;;;;;;;;;4995254;28;93094;-84
2023/08/26 11:40:10;;;;;;;7.22;1.90;;;;;;;;;;4995093;28;92458;-85
2023/08/26 11:42:38;;;;;;;7.65;2.03;;;;;;;;;;4993560;28;95083;-85
2023/08/26 11:45:08;;;;;;;6.00;1.92;;;;;;;;;;4980599;28;93337;-84
2023/08/26 11:47:35;;;;;;;5.82;2.20;;;;;;;;;;4991733;28;92734;-84
2023/08/26 11:50:03;;;;;;;8.20;2.33;;;;;;;;;;4969927;28;94944;-84
2023/08/26 11:52:36;;;;;;;4.18;1.85;;;;;;;;;;4988285;28;92648;-84
2023/08/26 11:55:04;;;;;;;5.25;2.08;;;;;;;;;;4970037;28;96107;-85
2023/08/26 11:57:32;;;;;;;5.85;2.10;;;;;;;;;;4988606;28;93085;-85
2023/08/26 12:00:09;;;;;;;6.63;2.10;;;;;;;;;;4989538;28;91758;-85
2023/08/26 12:02:44;;;;;;;5.68;2.00;;;;;;;;;;4972455;28;94123;-85
2023/08/26 12:05:12;;;;;;;4.25;2.00;;;;;;;;;;4959092;28;96232;-85
2023/08/26 12:07:45;;;;;;;6.25;1.92;;;;;;;;;;4969255;28;94860;-85
2023/08/26 12:10:13;;;;;;;5.40;1.90;;;;;;;;;;4974890;28;95162;-85
2023/08/26 12:12:40;;;;;;;5.15;2.00;;;;;;;;;;4989514;28;92966;-85
2023/08/26 12:15:11;;;;;;;6.43;1.80;;;;;;;;;;4990918;28;92742;-85
2023/08/26 12:17:45;;;;;;;3.65;1.70;;;;;;;;;;4993140;28;93849;-84
2023/08/26 12:20:38;;;;;;;6.13;1.85;;;;;;;;;;4996818;28;92859;-85
2023/08/26 12:23:05;;;;;;;3.38;1.60;;;;;;;;;;4996605;28;92545;-84
2023/08/26 12:25:40;;;;;;;3.25;1.50;;;;;;;;;;4973574;28;95812;-85
2023/08/26 12:28:24;;;;;;;4.15;1.65;;;;;;;;;;4985379;28;92440;-85
2023/08/26 12:30:51;;;;;;;4.55;1.50;;;;;;;;;;4983064;28;95733;-84
2023/08/26 12:33:18;;;;;;;4.03;1.70;;;;;;;;;;5002949;28;95691;-84
2023/08/26 12:35:53;;;;;;;3.97;1.70;;;;;;;;;;4980452;28;96951;-88
2023/08/26 12:38:21;;;;;;;6.43;2.03;;;;;;;;;;4996264;28;94134;-86
2023/08/26 12:40:48;;;;;;;2.95;1.50;;;;;;;;;;4994627;28;92980;-85
2023/08/26 12:43:18;;;;;;;4.90;1.60;;;;;;;;;;4994615;28;93556;-85
2023/08/26 12:45:45;;;;;;;2.92;1.45;;;;;;;;;;4994698;28;93003;-86
2023/08/26 12:48:12;;;;;;;3.65;1.67;;;;;;;;;;4976709;28;92609;-84
2023/08/26 12:50:48;;;;;;;4.25;1.65;;;;;;;;;;4994590;28;93661;-85
2023/08/26 12:53:14;;;;;;;2.67;1.67;;;;;;;;;;4975399;28;94542;-85
2023/08/26 12:55:41;;;;;;;3.97;1.67;;;;;;;;;;4997261;28;93080;-84
2023/08/26 12:58:08;;;;;;;3.45;1.45;;;;;;;;;;4974298;28;96499;-84
2023/08/26 13:00:35;;;;;;;4.45;1.60;;;;;;;;;;4993493;28;92489;-86
2023/08/26 13:03:03;;;;;;;4.47;1.60;;;;;;;;;;4975326;28;92815;-86
2023/08/26 13:05:30;;;;;;;3.25;1.42;;;;;;;;;;4993947;28;93643;-86
2023/08/26 13:07:57;;;;;;;4.65;1.63;;;;;;;;;;4992764;28;92897;-86
2023/08/26 13:10:24;;;;;;;3.10;1.40;;;;;;;;;;4994071;28;92997;-85
2023/08/26 13:12:51;;;;;;;3.60;1.50;;;;;;;;;;4993394;28;93753;-86
2023/08/26 13:15:18;;;;;;;2.97;1.50;;;;;;;;;;4993975;28;91769;-85
2023/08/26 13:17:45;;;;;;;3.95;1.60;;;;;;;;;;4978343;28;94959;-85
2023/08/26 13:20:11;;;;;;;3.13;1.50;;;;;;;;;;4975465;28;92581;-85
2023/08/26 13:22:39;;;;;;;2.55;1.45;;;;;;;;;;4991948;28;95094;-85
2023/08/26 13:25:07;;;;;;;3.03;1.60;;;;;;;;;;4976338;28;93011;-86
2023/08/26 13:27:33;;;;;;;2.88;1.50;;;;;;;;;;4994178;28;92434;-85
2023/08/26 13:30:00;;;;;;;3.75;1.40;;;;;;;;;;4960173;28;96097;-85
2023/08/26 13:32:27;;;;;;;3.40;1.70;;;;;;;;;;4976811;28;94405;-85
2023/08/26 13:34:53;;;;;;;3.42;1.52;;;;;;;;;;4993891;28;92443;-84
2023/08/26 13:37:20;;;;;;;2.65;1.40;;;;;;;;;;4990755;28;92727;-85
2023/08/26 13:39:47;;;;;;;4.13;1.50;;;;;;;;;;4984778;28;91964;-85
2023/08/26 13:42:14;;;;;;;2.85;1.55;;;;;;;;;;4974394;28;94967;-85
2023/08/26 13:44:40;;;;;;;2.72;1.50;;;;;;;;;;4993069;28;93329;-85
2023/08/26 13:47:07;;;;;;;2.83;1.50;;;;;;;;;;4991454;28;94848;-85
2023/08/26 13:49:33;;;;;;;4.10;1.70;;;;;;;;;;4974393;28;96477;-85
2023/08/26 13:52:00;;;;;;;3.30;1.40;;;;;;;;;;4992862;28;93386;-85
2023/08/26 13:54:27;;;;;;;2.13;1.40;;;;;;;;;;4993542;28;94199;-84
2023/08/26 13:56:54;;;;;;;2.85;1.60;;;;;;;;;;4993673;28;92758;-85
2023/08/26 13:59:20;;;;;;;3.13;1.52;;;;;;;;;;4998250;28;93769;-86
2023/08/26 14:01:49;;;;;;;4.05;1.63;;;;;;;;;;4978492;28;92710;-86
2023/08/26 14:04:16;;;;;;;5.38;1.60;;;;;;;;;;4995488;28;94202;-85
2023/08/26 14:06:43;;;;;;;3.10;1.33;;;;;;;;;;4997324;28;92505;-85
2023/08/26 14:09:10;;;;;;;2.45;1.45;;;;;;;;;;4976906;28;94581;-86
2023/08/26 14:11:38;;;;;;;2.92;1.40;;;;;;;;;;4992584;28;95197;-85
2023/08/26 14:14:04;;;;;;;3.33;1.50;;;;;;;;;;4995757;28;92446;-85
2023/08/26 14:16:31;;;;;;;2.78;1.40;;;;;;;;;;4964292;28;96132;-85
2023/08/26 14:19:00;;;;;;;3.20;1.35;;;;;;;;;;4995558;28;93076;-86
2023/08/26 14:21:27;;;;;;;2.67;1.30;;;;;;;;;;4998957;28;92490;-85
2023/08/26 14:23:53;;;;;;;2.72;1.30;;;;;;;;;;4976382;28;96244;-85
2023/08/26 14:26:20;;;;;;;2.58;1.30;;;;;;;;;;4994643;28;92908;-84
2023/08/26 14:28:47;;;;;;;1.98;1.30;;;;;;;;;;4995652;28;93170;-85
2023/08/26 14:31:13;;;;;;;2.80;1.42;;;;;;;;;;4995133;28;92388;-86
2023/08/26 14:33:40;;;;;;;2.65;1.38;;;;;;;;;;4996882;28;92415;-84
2023/08/26 14:36:07;;;;;;;3.33;1.30;;;;;;;;;;4993668;28;94806;-85
2023/08/26 14:38:35;;;;;;;3.25;1.40;;;;;;;;;;4994534;28;93070;-86
2023/08/26 14:41:01;;;;;;;2.60;1.35;;;;;;;;;;4993836;28;92397;-86
2023/08/26 14:43:28;;;;;;;2.05;1.30;;;;;;;;;;4996535;28;93013;-85
2023/08/26 14:45:55;;;;;;;3.35;1.52;;;;;;;;;;4975177;28;92985;-85